Steeles Tavern, Virginia
Current Conditions -  °F | °C
As of 11:35 AM on Thursday 23 Oct 2014 (Local Time) from KW13 Reporting Station
Clear Clear  
Wind Chill: 57°   Ceiling: Unl
Heat Index: 57°   Visibility: 10mi
Dew Point: 41°   Wind: 9mph
Humidity: 55%   Direction: 330°NNW
Pressure: 30"   Gusts: 25mph
Location:  37.93°N, 79.2°W
Report Text: KW13 231535Z AUTO 33008G22KT 10SM CLR 14/05 A3000 RMK AO1 T01370049
Loading
Personal Weather Stations






























Interactive Weather Map
Tropical Storm Tracking
New forecast layout! Learn more

10-Day Weather Forecast

Advertisements
Track Severe Weather on mobile